Iacsonvilla, FL (32257)

12:29 PM EDT die 23o October, anno 2014 (GMT -0400)
Mandarin / Julington Crk | Change Station
CLOSE
Current Station
Personal Weather Stations
Location: Jacksonville, FL
Elevation: 21 ft
Nearby Weather Stations

Elev 21 ft 30.18 °N, 81.59 °W | Updated 1 second ago

Partialiter Nubila
Partialiter Nubila
76.8 °F
Feels Like 78 °F
N
11.5
Ventus Variabilis Ventus from Magis Aquilo quam Zephyrus
Gusts 11.5 mph

Hodie
High -- | Low -- °F
--% Chance of Precip.
Yesterday
High -- | Low -- °F
Precip. -- in
7:33 AM 6:47 PM
Waning Crescent, 0% visible
Pressio 30.06 in
Visibilitas 10.0 milia passuum
Clouds Nubes Dispersae 4000 ft
Index Caloris 78 °F
Frigus in quo Ros apparet 55 °F
Umor 47%
Rainfall 0.00 in
Snow Depth Not available.
UV 5.3 out of 12
Pollen 4.70 out of 12
Ozone Good
PM2.5 Good
Flu Activity Local Activity
METAR KNIP 231553Z 02008G17KT 10SM SCT040 23/11 A3008 RMK AO2 SLP180 T02330111

More Conditions Fewer Conditions

Pressio 30.06 in
Visibilitas 10.0 milia passuum
Clouds Nubes Dispersae 4000 ft
Index Caloris 78 °F
Frigus in quo Ros apparet 55 °F
Umor 47%
Rainfall 0.00 in
Snow Depth Not available.
UV 5.3 out of 12
Pollen 4.70 out of 12
Ozone Good
PM2.5 Good
Flu Activity Local Activity
METAR KNIP 231553Z 02008G17KT 10SM SCT040 23/11 A3008 RMK AO2 SLP180 T02330111

More Conditions Fewer Conditions

10-Day Weather Forecast

Almanac

Astronomy

Oct. 23, 2014 Rise Set
Actual Time 7:33 AM EDT 6:47 PM EDT
Civil Twilight 7:09 AM EDT 7:11 PM EDT
Nautical Twilight 6:41 AM EDT 7:39 PM EDT
Astronomical Twilight 6:13 AM EDT 8:07 PM EDT
Moon 7:13 AM EDT 6:47 PM EDT
Length Of Visible Light 12h 02m
Length of Day
11h 13m
Tomorrow will be 1m 40s shorter.
Waning Crescent, 0% of the Moon is Illuminated
Hodie
Waning Crescent
Oct 23
New
Oct 30
First Quarter
Nov 6
Full
Nov 14
Last Quarter

Today's Extremes

State Highs State Lows

Community

WunderPhotos

Upload Photos

1,764,297 photos uploaded!

Nearby

Air Quality

  Air Quality AQ Index Pollutant
Yesterday Good
OZONE
Yesterday Good
PM2.5
Current Good
OZONE
Current Good
PM2.5
Die Jovis Good
OZONE
Die Jovis Good
PM2.5

Snow Depth

Station Depth Elevation
No new snow has been reported.

Earthquake Activity

City Distance Mag. Time & Date
No recent earthquake activity has been reported nearby.
Minimum magnitude displayed is 2.5.

Coastal Water Temperatures

Locus Calor
Mayport (Bar Pilots Dock), FL 75.9 °F
Fernandina Beach, FL 73.9 °F

Nearby Weather Stations